createdAt,value
2023-04-18T00:02:07.543Z,93111.72
2023-04-18T00:04:34.777Z,93109.13
2023-04-18T00:07:01.794Z,93111.03
2023-04-18T00:09:28.779Z,93110.19
2023-04-18T00:11:57.182Z,93115.13
2023-04-18T00:14:24.833Z,93102.78
2023-04-18T00:16:54.287Z,93109.91
2023-04-18T00:19:21.679Z,93115.56
2023-04-18T00:21:49.568Z,93111.19
2023-04-18T00:24:16.778Z,93122.09
2023-04-18T00:26:43.817Z,93111.38
2023-04-18T00:29:12.184Z,93112.41
2023-04-18T00:31:39.125Z,93110.00
2023-04-18T00:34:06.311Z,93109.50
2023-04-18T00:36:33.287Z,93107.66
2023-04-18T00:39:00.399Z,93104.47
2023-04-18T00:41:28.328Z,93099.22
2023-04-18T00:43:55.357Z,93096.31
2023-04-18T00:46:24.492Z,93095.97
2023-04-18T00:48:51.698Z,93101.41
2023-04-18T00:51:18.815Z,93092.22
2023-04-18T00:53:46.208Z,93095.84
2023-04-18T00:56:13.372Z,93093.75
2023-04-18T00:58:41.141Z,93091.97
2023-04-18T01:01:09.054Z,93086.47
2023-04-18T01:03:39.668Z,93083.63
2023-04-18T01:06:07.290Z,93086.56
2023-04-18T01:08:34.556Z,93085.13
2023-04-18T01:11:01.706Z,93077.03
2023-04-18T01:13:28.646Z,93088.72
2023-04-18T01:15:55.982Z,93081.31
2023-04-18T01:18:23.104Z,93079.81
2023-04-18T01:20:53.234Z,93084.50
2023-04-18T01:23:21.314Z,93083.06
2023-04-18T01:25:49.711Z,93086.88
2023-04-18T01:28:19.803Z,93084.50
2023-04-18T01:30:48.597Z,93088.59
2023-04-18T01:33:16.384Z,93087.13
2023-04-18T01:35:44.568Z,93084.88
2023-04-18T01:38:11.687Z,93076.34
2023-04-18T01:40:38.713Z,93080.34
2023-04-18T01:43:07.136Z,93080.34
2023-04-18T01:45:34.868Z,93081.13
2023-04-18T01:48:02.000Z,93077.28
2023-04-18T01:50:29.063Z,93078.91
2023-04-18T01:52:56.053Z,93070.84
2023-04-18T01:55:23.086Z,93074.38
2023-04-18T01:57:50.979Z,93074.06
2023-04-18T02:00:21.664Z,93072.84
2023-04-18T02:02:50.403Z,93074.03
2023-04-18T02:05:17.782Z,93074.28
2023-04-18T02:07:45.567Z,93074.34
2023-04-18T02:10:12.545Z,93081.47
2023-04-18T02:12:39.466Z,93080.03
2023-04-18T02:15:07.701Z,93084.03
2023-04-18T02:17:37.961Z,93084.50
2023-04-18T02:20:05.624Z,93095.78
2023-04-18T02:22:32.593Z,93086.69
2023-04-18T02:25:00.836Z,93082.16
2023-04-18T02:27:27.946Z,93089.69
2023-04-18T02:29:57.079Z,93088.91
2023-04-18T02:32:24.884Z,93092.88
2023-04-18T02:34:53.479Z,93094.81
2023-04-18T02:37:20.496Z,93091.75
2023-04-18T02:39:47.769Z,93090.09
2023-04-18T02:42:14.823Z,93094.22
2023-04-18T02:44:41.768Z,93085.03
2023-04-18T02:47:09.549Z,93083.34
2023-04-18T02:49:39.796Z,93091.19
2023-04-18T02:52:08.266Z,93091.63
2023-04-18T02:54:35.008Z,93085.69
2023-04-18T02:57:07.339Z,93080.72
2023-04-18T02:59:49.132Z,93083.91
2023-04-18T03:02:34.531Z,93091.09
2023-04-18T03:05:12.302Z,93090.78
2023-04-18T03:07:40.973Z,93085.63
2023-04-18T03:10:08.469Z,93098.31
2023-04-18T03:12:37.475Z,93091.78
2023-04-18T03:15:05.477Z,93092.56
2023-04-18T03:17:32.941Z,93096.53
2023-04-18T03:20:00.287Z,93098.31
2023-04-18T03:22:27.225Z,93104.91
2023-04-18T03:24:58.010Z,93107.84
2023-04-18T03:27:40.032Z,93111.47
2023-04-18T03:30:08.588Z,93109.56
2023-04-18T03:32:36.783Z,93120.31
2023-04-18T03:35:04.204Z,93116.47
2023-04-18T03:37:31.247Z,93121.91
2023-04-18T03:40:01.050Z,93119.19
2023-04-18T03:42:29.984Z,93113.56
2023-04-18T03:44:57.236Z,93117.09
2023-04-18T03:47:24.282Z,93120.63
2023-04-18T03:49:56.025Z,93121.44
2023-04-18T03:52:25.088Z,93119.81
2023-04-18T03:54:52.175Z,93121.75
2023-04-18T03:57:25.552Z,93114.88
2023-04-18T03:59:52.708Z,93127.06
2023-04-18T04:02:19.894Z,93124.03
2023-04-18T04:04:47.077Z,93124.38
2023-04-18T04:07:14.306Z,93120.22
2023-04-18T04:09:42.152Z,93128.38
2023-04-18T04:12:09.201Z,93128.38
2023-04-18T04:14:37.657Z,93127.06
2023-04-18T04:17:06.158Z,93129.78
2023-04-18T04:19:33.459Z,93136.25
2023-04-18T04:22:09.070Z,93130.22
2023-04-18T04:24:38.610Z,93136.59
2023-04-18T04:27:07.063Z,93137.06
2023-04-18T04:29:39.253Z,93145.41
2023-04-18T04:32:08.261Z,93133.00
2023-04-18T04:34:38.243Z,93143.28
2023-04-18T04:37:08.233Z,93143.28
2023-04-18T04:39:41.678Z,93139.56
2023-04-18T04:42:41.107Z,93138.28
2023-04-18T04:45:15.902Z,93141.91
2023-04-18T04:47:42.918Z,93136.44
2023-04-18T04:50:14.858Z,93140.78
2023-04-18T04:52:42.347Z,93142.66
2023-04-18T04:55:09.570Z,93143.56
2023-04-18T04:57:37.365Z,93141.91
2023-04-18T05:00:20.952Z,93144.22
2023-04-18T05:02:48.727Z,93147.06
2023-04-18T05:05:16.317Z,93149.13
2023-04-18T05:07:43.225Z,93153.56
2023-04-18T05:10:10.792Z,93155.22
2023-04-18T05:12:37.818Z,93156.81
2023-04-18T05:15:05.755Z,93163.91
2023-04-18T05:17:34.288Z,93160.19
2023-04-18T05:20:01.115Z,93165.16
2023-04-18T05:22:28.179Z,93160.47
2023-04-18T05:24:55.111Z,93166.34
2023-04-18T05:27:22.145Z,93163.88
2023-04-18T05:29:50.349Z,93161.72
2023-04-18T05:32:17.321Z,93162.16
2023-04-18T05:34:46.050Z,93164.03
2023-04-18T05:37:13.363Z,93164.31
2023-04-18T05:39:40.505Z,93163.63
2023-04-18T05:42:07.537Z,93159.53
2023-04-18T05:44:34.498Z,93168.03
2023-04-18T05:47:01.645Z,93164.41
2023-04-18T05:49:28.537Z,93170.59
2023-04-18T05:52:15.613Z,93172.19
2023-04-18T05:54:42.736Z,93175.75
2023-04-18T05:57:09.745Z,93173.38
2023-04-18T05:59:36.761Z,93180.81
2023-04-18T06:02:03.985Z,93177.44
2023-04-18T06:04:31.320Z,93177.63
2023-04-18T06:06:59.890Z,93180.56
2023-04-18T06:09:26.934Z,93178.69
2023-04-18T06:11:53.999Z,93181.16
2023-04-18T06:14:20.977Z,93183.81
2023-04-18T06:16:48.295Z,93182.06
2023-04-18T06:19:15.349Z,93180.19
2023-04-18T06:21:42.921Z,93179.31
2023-04-18T06:24:11.352Z,93181.09
2023-04-18T06:26:38.062Z,93180.47
2023-04-18T06:29:04.974Z,93179.66
2023-04-18T06:31:32.074Z,93183.38
2023-04-18T06:33:59.102Z,93172.59
2023-04-18T06:36:27.505Z,93174.59
2023-04-18T06:38:54.658Z,93180.63
2023-04-18T06:41:23.025Z,93181.09
2023-04-18T06:44:02.624Z,93173.91
2023-04-18T06:46:31.573Z,93176.75
2023-04-18T06:48:58.588Z,93185.44
2023-04-18T06:51:25.693Z,93183.72
2023-04-18T06:53:53.782Z,93180.34
2023-04-18T06:56:22.284Z,93180.72
2023-04-18T06:58:50.160Z,93178.66
2023-04-18T07:01:17.235Z,93185.13
2023-04-18T07:03:44.582Z,93187.19
2023-04-18T07:06:11.703Z,93190.41
2023-04-18T07:08:38.722Z,93191.25
2023-04-18T07:11:06.125Z,93189.47
2023-04-18T07:13:34.475Z,93195.44
2023-04-18T07:16:01.698Z,93197.75
2023-04-18T07:18:37.504Z,93189.84
2023-04-18T07:21:07.684Z,93201.47
2023-04-18T07:23:35.203Z,93198.19
2023-04-18T07:26:03.088Z,93196.94
2023-04-18T07:28:31.748Z,93198.19
2023-04-18T07:30:59.930Z,93200.16
2023-04-18T07:33:27.010Z,93195.06
2023-04-18T07:35:54.027Z,93191.59
2023-04-18T07:38:20.952Z,93199.13
2023-04-18T07:40:56.606Z,93196.63
2023-04-18T07:43:23.649Z,93202.78
2023-04-18T07:45:51.565Z,93198.72
2023-04-18T07:48:22.263Z,93201.25
2023-04-18T07:50:49.537Z,93199.84
2023-04-18T07:53:16.824Z,93210.47
2023-04-18T07:55:43.811Z,93206.78
2023-04-18T07:58:11.229Z,93213.03
2023-04-18T08:00:39.279Z,93211.75
2023-04-18T08:03:07.950Z,93206.97
2023-04-18T08:05:36.979Z,93213.84
2023-04-18T08:08:04.013Z,93214.22
2023-04-18T08:10:31.131Z,93215.13
2023-04-18T08:12:58.074Z,93211.41
2023-04-18T08:15:25.173Z,93210.41
2023-04-18T08:17:52.135Z,93219.53
2023-04-18T08:20:19.087Z,93212.66
2023-04-18T08:23:04.700Z,93210.59
2023-04-18T08:25:33.840Z,93219.63
2023-04-18T08:28:00.857Z,93221.06
2023-04-18T08:30:28.488Z,93218.34
2023-04-18T08:32:55.646Z,93217.97
2023-04-18T08:35:22.903Z,93227.72
2023-04-18T08:37:51.293Z,93229.00
2023-04-18T08:40:18.852Z,93224.84
2023-04-18T08:42:46.148Z,93225.22
2023-04-18T08:45:14.307Z,93221.41
2023-04-18T08:47:41.477Z,93221.78
2023-04-18T08:50:09.959Z,93214.94
2023-04-18T08:52:37.817Z,93212.38
2023-04-18T08:55:07.487Z,93215.75
2023-04-18T08:57:35.988Z,93218.84
2023-04-18T09:00:10.211Z,93212.84
2023-04-18T09:02:45.261Z,93210.47
2023-04-18T09:05:13.936Z,93214.09
2023-04-18T09:07:41.335Z,93210.69
2023-04-18T09:10:10.522Z,93212.53
2023-04-18T09:12:42.700Z,93217.00
2023-04-18T09:15:11.063Z,93209.50
2023-04-18T09:17:41.703Z,93212.19
2023-04-18T09:20:13.039Z,93213.91
2023-04-18T09:22:49.026Z,93215.97
2023-04-18T09:25:29.420Z,93213.16
2023-04-18T09:28:01.876Z,93214.78
2023-04-18T09:30:37.034Z,93209.16
2023-04-18T09:33:05.583Z,93210.94
2023-04-18T09:35:32.696Z,93218.50
2023-04-18T09:37:59.671Z,93209.53
2023-04-18T09:40:29.468Z,93209.53
2023-04-18T09:42:56.652Z,93214.09
2023-04-18T09:45:24.886Z,93206.06
2023-04-18T09:47:52.259Z,93201.97
2023-04-18T09:50:20.909Z,93204.84
2023-04-18T09:52:48.702Z,93207.44
2023-04-18T09:55:17.188Z,93205.59
2023-04-18T09:57:47.034Z,93199.22
2023-04-18T10:00:20.311Z,93201.19
2023-04-18T10:02:52.477Z,93204.94
2023-04-18T10:05:24.408Z,93205.59
2023-04-18T10:07:51.730Z,93197.56
2023-04-18T10:10:18.909Z,93203.41
2023-04-18T10:12:48.176Z,93208.22
2023-04-18T10:15:16.227Z,93205.28
2023-04-18T10:17:56.034Z,93206.31
2023-04-18T10:20:29.352Z,93200.25
2023-04-18T10:22:57.777Z,93198.06
2023-04-18T10:25:52.052Z,93199.56
2023-04-18T10:28:21.081Z,93196.81
2023-04-18T10:31:03.826Z,93194.09
2023-04-18T10:33:33.964Z,93181.44
2023-04-18T10:36:04.224Z,93180.88
2023-04-18T10:38:32.207Z,93183.47
2023-04-18T10:41:19.652Z,93186.47
2023-04-18T10:44:06.389Z,93188.25
2023-04-18T10:46:37.244Z,93174.50
2023-04-18T10:49:14.309Z,93173.47
2023-04-18T10:51:41.735Z,93174.63
2023-04-18T10:54:12.185Z,93181.13
2023-04-18T10:56:39.570Z,93172.50
2023-04-18T10:59:09.569Z,93171.63
2023-04-18T11:01:38.615Z,93172.69
2023-04-18T11:04:12.890Z,93165.31
2023-04-18T11:06:50.057Z,93163.28
2023-04-18T11:09:17.333Z,93166.50
2023-04-18T11:11:44.382Z,93165.97
2023-04-18T11:14:11.598Z,93158.56
2023-04-18T11:16:40.217Z,93155.03
2023-04-18T11:19:21.111Z,93159.25
2023-04-18T11:21:48.218Z,93158.75
2023-04-18T11:24:22.870Z,93154.03
2023-04-18T11:26:50.008Z,93156.38
2023-04-18T11:29:18.025Z,93151.50
2023-04-18T11:31:51.871Z,93147.44
2023-04-18T11:34:18.893Z,93147.50
2023-04-18T11:36:49.152Z,93147.16
2023-04-18T11:39:16.217Z,93146.41
2023-04-18T11:41:48.296Z,93153.50
2023-04-18T11:44:15.653Z,93142.47
2023-04-18T11:46:42.797Z,93144.00
2023-04-18T11:49:24.714Z,93141.94
2023-04-18T11:51:51.786Z,93144.81
2023-04-18T11:54:40.733Z,93151.72
2023-04-18T11:57:19.419Z,93155.84
2023-04-18T11:59:52.068Z,93152.13
2023-04-18T12:02:19.314Z,93159.81
2023-04-18T12:04:59.413Z,93160.00
2023-04-18T12:07:34.381Z,93159.34
2023-04-18T12:10:01.525Z,93161.44
2023-04-18T12:12:28.644Z,93158.16
2023-04-18T12:15:00.266Z,93158.66
2023-04-18T12:17:27.548Z,93156.94
2023-04-18T12:19:55.522Z,93153.00
2023-04-18T12:25:24.359Z,93142.06
2023-04-18T12:27:56.072Z,93149.44
2023-04-18T12:30:24.862Z,93151.22
2023-04-18T12:32:53.548Z,93150.03
2023-04-18T12:35:21.432Z,93148.63
2023-04-18T12:37:49.410Z,93143.44
2023-04-18T12:40:16.897Z,93146.19
2023-04-18T12:42:46.029Z,93147.75
2023-04-18T12:45:14.485Z,93160.66
2023-04-18T12:47:43.151Z,93164.38
2023-04-18T12:50:11.682Z,93166.53
2023-04-18T12:52:40.226Z,93171.22
2023-04-18T12:55:08.264Z,93167.44
2023-04-18T12:57:35.472Z,93166.91
2023-04-18T13:00:11.292Z,93166.22
2023-04-18T13:02:39.460Z,93170.72
2023-04-18T13:05:07.583Z,93175.44
2023-04-18T13:07:35.108Z,93171.63
2023-04-18T13:10:02.089Z,93180.69
2023-04-18T13:12:30.615Z,93169.00
2023-04-18T13:14:57.657Z,93174.53
2023-04-18T13:17:26.315Z,93173.50
2023-04-18T13:19:53.544Z,93171.41
2023-04-18T13:22:21.270Z,93180.09
2023-04-18T13:24:48.620Z,93172.91
2023-04-18T13:27:15.627Z,93166.38
2023-04-18T13:29:43.616Z,93173.72
2023-04-18T13:32:10.750Z,93173.09
2023-04-18T13:34:44.119Z,93175.41
2023-04-18T13:37:11.217Z,93176.09
2023-04-18T13:39:38.317Z,93176.16
2023-04-18T13:42:07.554Z,93180.28
2023-04-18T13:44:35.883Z,93184.25
2023-04-18T13:47:03.261Z,93182.34
2023-04-18T13:49:30.212Z,93182.56
2023-04-18T13:51:59.175Z,93176.00
2023-04-18T13:54:26.762Z,93171.47
2023-04-18T13:56:53.941Z,93173.59
2023-04-18T13:59:21.019Z,93175.59
2023-04-18T14:01:49.257Z,93177.53
2023-04-18T14:04:16.367Z,93175.63
2023-04-18T14:06:43.887Z,93183.50
2023-04-18T14:09:12.337Z,93181.47
2023-04-18T14:11:39.385Z,93179.47
2023-04-18T14:14:07.205Z,93172.56
2023-04-18T14:16:34.492Z,93177.91
2023-04-18T14:19:02.426Z,93175.53
2023-04-18T14:21:29.552Z,93178.25
2023-04-18T14:23:56.668Z,93176.63
2023-04-18T14:26:25.104Z,93182.91
2023-04-18T14:28:52.160Z,93179.09
2023-04-18T14:31:19.395Z,93184.13
2023-04-18T14:33:46.432Z,93190.78
2023-04-18T14:36:15.267Z,93193.75
2023-04-18T14:38:42.469Z,93192.91
2023-04-18T14:41:09.391Z,93193.31
2023-04-18T14:43:37.812Z,93194.47
2023-04-18T14:46:10.608Z,93201.91
2023-04-18T14:48:37.598Z,93202.78
2023-04-18T14:51:04.823Z,93214.59
2023-04-18T14:53:31.735Z,93211.06
2023-04-18T14:55:58.740Z,93220.56
2023-04-18T14:58:25.756Z,93217.81
2023-04-18T15:00:54.110Z,93225.28
2023-04-18T15:03:21.225Z,93225.69
2023-04-18T15:05:49.130Z,93221.97
2023-04-18T15:08:16.604Z,93221.53
2023-04-18T15:10:44.746Z,93226.19
2023-04-18T15:13:11.768Z,93225.66
2023-04-18T15:15:39.900Z,93224.47
2023-04-18T15:18:08.691Z,93228.03
2023-04-18T15:20:37.310Z,93231.81
2023-04-18T15:23:04.275Z,93228.22
2023-04-18T15:25:31.344Z,93237.19
2023-04-18T15:27:58.636Z,93241.88
2023-04-18T15:30:25.790Z,93234.06
2023-04-18T15:32:54.080Z,93238.84
2023-04-18T15:35:22.311Z,93240.88
2023-04-18T15:37:49.326Z,93243.00
2023-04-18T15:40:16.577Z,93244.44
2023-04-18T15:42:43.844Z,93245.50
2023-04-18T15:45:11.666Z,93247.47
2023-04-18T15:47:38.939Z,93249.84
2023-04-18T15:50:07.319Z,93251.97
2023-04-18T15:52:36.196Z,93254.09
2023-04-18T15:55:03.569Z,93255.06
2023-04-18T15:57:30.998Z,93248.16
2023-04-18T15:59:59.626Z,93250.19
2023-04-18T16:02:26.959Z,93251.59
2023-04-18T16:04:54.088Z,93252.84
2023-04-18T16:07:21.127Z,93255.69
2023-04-18T16:09:49.478Z,93258.06
2023-04-18T16:12:16.372Z,93263.28
2023-04-18T16:14:43.353Z,93259.34
2023-04-18T16:17:10.553Z,93268.69
2023-04-18T16:19:38.870Z,93271.94
2023-04-18T16:22:07.228Z,93271.03
2023-04-18T16:24:34.218Z,93275.50
2023-04-18T16:27:02.835Z,93280.06
2023-04-18T16:29:30.023Z,93278.28
2023-04-18T16:31:57.021Z,93277.94
2023-04-18T16:34:23.979Z,93278.78
2023-04-18T16:36:51.279Z,93275.25
2023-04-18T16:39:19.296Z,93281.38
2023-04-18T16:41:46.596Z,93277.38
2023-04-18T16:44:15.206Z,93275.41
2023-04-18T16:46:42.544Z,93283.13
2023-04-18T16:49:09.674Z,93279.66
2023-04-18T16:51:37.817Z,93278.78
2023-04-18T16:54:05.932Z,93277.53
2023-04-18T16:56:33.790Z,93281.34
2023-04-18T16:59:00.836Z,93279.63
2023-04-18T17:01:29.268Z,93272.28
2023-04-18T17:03:56.139Z,93273.75
2023-04-18T17:08:53.541Z,93280.78
2023-04-18T17:11:20.857Z,93279.69
2023-04-18T17:13:48.175Z,93285.47
2023-04-18T17:16:15.352Z,93287.09
2023-04-18T17:18:43.865Z,93289.47
2023-04-18T17:21:12.625Z,93300.72
2023-04-18T17:23:41.478Z,93299.28
2023-04-18T17:26:08.703Z,93303.44
2023-04-18T17:28:36.457Z,93303.75
2023-04-18T17:31:03.893Z,93302.34
2023-04-18T17:33:31.008Z,93303.66
2023-04-18T17:35:59.466Z,93308.63
2023-04-18T17:38:26.265Z,93298.22
2023-04-18T17:41:00.135Z,93297.56
2023-04-18T17:43:27.790Z,93293.38
2023-04-18T17:45:56.042Z,93302.84
2023-04-18T17:48:23.205Z,93308.63
2023-04-18T17:50:50.248Z,93307.88
2023-04-18T17:53:18.924Z,93305.97
2023-04-18T17:55:48.909Z,93305.19
2023-04-18T17:58:16.997Z,93314.78
2023-04-18T18:00:44.182Z,93314.28
2023-04-18T18:03:13.678Z,93312.84
2023-04-18T18:05:41.865Z,93317.78
2023-04-18T18:08:08.969Z,93323.41
2023-04-18T18:10:37.393Z,93322.94
2023-04-18T18:13:04.559Z,93328.91
2023-04-18T18:15:31.901Z,93340.94
2023-04-18T18:17:59.291Z,93331.50
2023-04-18T18:20:27.419Z,93347.06
2023-04-18T18:22:55.017Z,93338.25
2023-04-18T18:25:22.030Z,93345.75
2023-04-18T18:27:51.541Z,93345.63
2023-04-18T18:30:19.041Z,93355.56
2023-04-18T18:32:46.229Z,93350.25
2023-04-18T18:35:13.341Z,93363.09
2023-04-18T18:37:41.113Z,93367.59
2023-04-18T18:40:09.485Z,93357.63
2023-04-18T18:42:36.924Z,93356.22
2023-04-18T18:45:07.544Z,93361.66
2023-04-18T18:47:34.933Z,93355.56
2023-04-18T18:50:03.207Z,93364.88
2023-04-18T18:52:31.023Z,93362.13
2023-04-18T18:54:58.002Z,93357.47
2023-04-18T18:57:25.119Z,93359.13
2023-04-18T18:59:53.349Z,93364.06
2023-04-18T19:02:23.884Z,93362.13
2023-04-18T19:04:51.062Z,93360.53
2023-04-18T19:07:18.038Z,93360.53
2023-04-18T19:09:46.468Z,93360.84
2023-04-18T19:12:13.162Z,93358.75
2023-04-18T19:14:42.282Z,93361.81
2023-04-18T19:17:09.429Z,93353.47
2023-04-18T19:19:37.916Z,93361.31
2023-04-18T19:22:06.465Z,93357.31
2023-04-18T19:24:34.943Z,93354.13
2023-04-18T19:27:02.962Z,93352.16
2023-04-18T19:29:32.456Z,93348.34
2023-04-18T19:31:59.907Z,93350.91
2023-04-18T19:34:27.048Z,93352.00
2023-04-18T19:36:55.533Z,93351.69
2023-04-18T19:39:22.500Z,93348.97
2023-04-18T19:41:49.504Z,93349.41
2023-04-18T19:44:16.482Z,93351.69
2023-04-18T19:46:43.492Z,93353.75
2023-04-18T19:49:10.639Z,93354.72
2023-04-18T19:51:38.995Z,93355.66
2023-04-18T19:54:07.491Z,93355.06
2023-04-18T19:56:34.481Z,93354.03
2023-04-18T19:59:01.774Z,93361.97
2023-04-18T20:01:28.763Z,93358.06
2023-04-18T20:03:58.624Z,93353.91
2023-04-18T20:06:28.955Z,93361.16
2023-04-18T20:08:56.044Z,93355.41
2023-04-18T20:11:24.889Z,93358.00
2023-04-18T20:13:52.451Z,93362.03
2023-04-18T20:16:19.593Z,93351.78
2023-04-18T20:18:47.547Z,93351.97
2023-04-18T20:21:14.696Z,93353.06
2023-04-18T20:23:42.735Z,93345.88
2023-04-18T20:26:09.797Z,93346.53
2023-04-18T20:28:38.250Z,93346.03
2023-04-18T20:31:05.628Z,93345.06
2023-04-18T20:33:33.153Z,93343.16
2023-04-18T20:36:00.409Z,93341.72
2023-04-18T20:38:29.680Z,93345.91
2023-04-18T20:40:58.969Z,93343.00
2023-04-18T20:43:26.130Z,93341.38
2023-04-18T20:45:54.699Z,93339.13
2023-04-18T20:48:21.771Z,93346.50
2023-04-18T20:50:51.893Z,93340.72
2023-04-18T20:53:20.598Z,93339.94
2023-04-18T20:55:47.688Z,93338.66
2023-04-18T20:58:14.664Z,93346.53
2023-04-18T21:00:41.865Z,93342.16
2023-04-18T21:03:10.399Z,93345.84
2023-04-18T21:05:37.587Z,93341.34
2023-04-18T21:08:05.254Z,93352.09
2023-04-18T21:10:32.445Z,93347.28
2023-04-18T21:12:59.377Z,93349.06
2023-04-18T21:15:26.353Z,93347.91
2023-04-18T21:17:53.409Z,93341.84
2023-04-18T21:20:22.159Z,93350.00
2023-04-18T21:22:49.143Z,93347.28
2023-04-18T21:25:16.587Z,93342.47
2023-04-18T21:27:43.605Z,93337.19
2023-04-18T21:30:11.178Z,93335.91
2023-04-18T21:32:38.311Z,93339.94
2023-04-18T21:35:06.040Z,93341.22
2023-04-18T21:37:34.411Z,93334.84
2023-04-18T21:40:01.854Z,93332.09
2023-04-18T21:42:28.849Z,93333.38
2023-04-18T21:44:55.897Z,93332.25
2023-04-18T21:47:23.026Z,93336.09
2023-04-18T21:49:49.971Z,93332.38
2023-04-18T21:52:16.909Z,93332.22
2023-04-18T21:54:45.521Z,93332.38
2023-04-18T21:57:12.488Z,93337.56
2023-04-18T21:59:39.454Z,93331.19
2023-04-18T22:02:06.484Z,93341.13
2023-04-18T22:04:33.873Z,93333.44
2023-04-18T22:07:00.956Z,93329.25
2023-04-18T22:09:28.640Z,93328.13
2023-04-18T22:11:57.164Z,93334.41
2023-04-18T22:14:24.908Z,93337.44
2023-04-18T22:16:51.971Z,93336.78
2023-04-18T22:19:19.465Z,93331.03
2023-04-18T22:21:46.489Z,93331.03
2023-04-18T22:24:13.698Z,93332.63
2023-04-18T22:26:41.070Z,93329.59
2023-04-18T22:29:09.418Z,93335.84
2023-04-18T22:31:36.598Z,93327.84
2023-04-18T22:34:04.612Z,93328.63
2023-04-18T22:36:31.775Z,93324.97
2023-04-18T22:38:59.007Z,93327.84
2023-04-18T22:41:25.975Z,93327.69
2023-04-18T22:43:53.024Z,93323.34
2023-04-18T22:46:21.864Z,93321.13
2023-04-18T22:48:49.398Z,93326.22
2023-04-18T22:51:18.400Z,93321.72
2023-04-18T22:53:45.326Z,93326.06
2023-04-18T22:56:12.268Z,93314.03
2023-04-18T22:58:39.315Z,93315.19
2023-04-18T23:01:06.300Z,93303.47
2023-04-18T23:03:34.991Z,93300.28
2023-04-18T23:06:02.119Z,93304.25
2023-04-18T23:08:29.215Z,93298.97
2023-04-18T23:10:56.206Z,93293.69
2023-04-18T23:13:23.148Z,93292.56
2023-04-18T23:15:50.118Z,93291.78
2023-04-18T23:18:17.049Z,93290.97
2023-04-18T23:20:45.992Z,93291.13
2023-04-18T23:23:13.222Z,93296.41
2023-04-18T23:25:40.207Z,93289.53
2023-04-18T23:28:07.706Z,93292.88
2023-04-18T23:30:36.351Z,93290.81
2023-04-18T23:33:03.450Z,93294.50
2023-04-18T23:35:30.587Z,93294.69
2023-04-18T23:37:58.956Z,93293.69
2023-04-18T23:40:26.023Z,93284.72
2023-04-18T23:42:53.015Z,93287.59
2023-04-18T23:45:20.002Z,93281.97
2023-04-18T23:47:47.034Z,93282.94
2023-04-18T23:50:14.061Z,93278.59
2023-04-18T23:52:41.103Z,93281.63
2023-04-18T23:55:10.265Z,93273.44
2023-04-18T23:57:37.230Z,93272.94
